createdAt,value
2023-10-02T00:00:00.000Z,76.49
2023-10-02T00:15:00.000Z,76.94
2023-10-02T00:30:00.000Z,78.35
2023-10-02T00:45:00.000Z,79.12
2023-10-02T01:00:00.000Z,78.05
2023-10-02T01:15:00.000Z,78.74
2023-10-02T01:30:00.000Z,77.59
2023-10-02T01:45:00.000Z,76.62
2023-10-02T02:00:00.000Z,76.89
2023-10-02T02:15:00.000Z,77.15
2023-10-02T02:30:00.000Z,77.33
2023-10-02T02:45:00.000Z,77.12
2023-10-02T03:00:00.000Z,74.59
2023-10-02T03:15:00.000Z,74.28
2023-10-02T03:30:00.000Z,74.05
2023-10-02T03:45:00.000Z,73.79
2023-10-02T04:00:00.000Z,73.18
2023-10-02T04:15:00.000Z,72.74
2023-10-02T04:30:00.000Z,72.84
2023-10-02T04:45:00.000Z,72.68
2023-10-02T05:00:00.000Z,72.42
2023-10-02T05:15:00.000Z,71.55
2023-10-02T05:30:00.000Z,70.52
2023-10-02T05:45:00.000Z,65.03
2023-10-02T06:00:00.000Z,58.24
2023-10-02T06:15:00.000Z,53.57
2023-10-02T06:30:00.000Z,49.52
2023-10-02T06:45:00.000Z,47.76
2023-10-02T07:00:00.000Z,44.86
2023-10-02T07:15:00.000Z,41.31
2023-10-02T07:30:00.000Z,39.34
2023-10-02T07:45:00.000Z,38.06
2023-10-02T08:00:00.000Z,37.32
2023-10-02T08:15:00.000Z,35.96
2023-10-02T08:30:00.000Z,35.29
2023-10-02T08:45:00.000Z,34.45
2023-10-02T09:00:00.000Z,34.42
2023-10-02T09:15:00.000Z,34.1
2023-10-02T09:30:00.000Z,34.04
2023-10-02T09:45:00.000Z,35.09
2023-10-02T10:00:00.000Z,35.44
2023-10-02T10:15:00.000Z,36.57
2023-10-02T10:30:00.000Z,38.82
2023-10-02T10:45:00.000Z,38.55
2023-10-02T11:00:00.000Z,39.33
2023-10-02T11:15:00.000Z,40.48
2023-10-02T11:30:00.000Z,42.37
2023-10-02T11:45:00.000Z,41.36
2023-10-02T12:00:00.000Z,41.09
2023-10-02T12:15:00.000Z,42.18
2023-10-02T12:30:00.000Z,44.02
2023-10-02T12:45:00.000Z,41.99
2023-10-02T13:00:00.000Z,42.54
2023-10-02T13:15:00.000Z,44.07
2023-10-02T13:30:00.000Z,44.23
2023-10-02T13:45:00.000Z,44.92
2023-10-02T14:00:00.000Z,45.01
2023-10-02T14:15:00.000Z,46.32
2023-10-02T14:30:00.000Z,46.67
2023-10-02T14:45:00.000Z,48.18
2023-10-02T15:00:00.000Z,48.74
2023-10-02T15:15:00.000Z,49.67
2023-10-02T15:30:00.000Z,50.34
2023-10-02T15:45:00.000Z,50.83
2023-10-02T16:00:00.000Z,53.06
2023-10-02T16:15:00.000Z,57.13
2023-10-02T16:30:00.000Z,61.16
2023-10-02T16:45:00.000Z,64.06
2023-10-02T17:00:00.000Z,65.08
2023-10-02T17:15:00.000Z,66.11
2023-10-02T17:30:00.000Z,67.21
2023-10-02T17:45:00.000Z,66.68
2023-10-02T18:00:00.000Z,67.16
2023-10-02T18:15:00.000Z,66.52
2023-10-02T18:30:00.000Z,67.3
2023-10-02T18:45:00.000Z,67.53
2023-10-02T19:00:00.000Z,68.16
2023-10-02T19:15:00.000Z,69.22
2023-10-02T19:30:00.000Z,70.18
2023-10-02T19:45:00.000Z,71.12
2023-10-02T20:00:00.000Z,73.31
2023-10-02T20:15:00.000Z,75.83
2023-10-02T20:30:00.000Z,76.71
2023-10-02T20:45:00.000Z,77.41
2023-10-02T21:00:00.000Z,77.81
2023-10-02T21:15:00.000Z,77.61
2023-10-02T21:30:00.000Z,77.66
2023-10-02T21:45:00.000Z,76.99
2023-10-02T22:00:00.000Z,76.57
2023-10-02T22:15:00.000Z,77.6
2023-10-02T22:30:00.000Z,78.83
2023-10-02T22:45:00.000Z,79.73
2023-10-02T23:00:00.000Z,80.53
2023-10-02T23:15:00.000Z,80.88
2023-10-02T23:30:00.000Z,80.78
2023-10-02T23:45:00.000Z,81.08
